Seabrook, South Carolina
Current Conditions -  °F | °C
As of 6:56 AM on Tuesday 27 Jan 2015 (Local Time) from KNBC Reporting Station
Clear Clear  
Wind Chill: 31°   Ceiling: Unl
Heat Index: 36°   Visibility: 10mi
Dew Point: 29°   Wind: 6mph
Humidity: 76%   Direction: 300°WNW
Pressure: 29.87"   Gusts: NA
Location:  32.53°N, 80.77°W
Report Text: KNBC 271156Z 30005KT 10SM CLR 02/M02 A2987 RMK AO2 SLP114 T00221017 10044 20017 51007
Loading
Personal Weather Stations






























Interactive Weather Map New forecast layout! Learn more

10-Day Weather Forecast

Advertisements
Track Severe Weather on mobile